Time;durP1;ratioP1;P1;durP2;ratioP2;P2;SDS_P1;SDS_P2;PMS_P1;PMS_P2;Temp;Humidity;BMP_temperature;BMP_pressure;BME280_temperature;BME280_humidity;BME280_pressure;Samples;Min_cycle;Max_cycle;Signal;HPM_P1;HPM_P2
2022/03/15 00:00:54;;;;;;;;;;;6.30;99.90;;;;;;6129707;23;19921;-88
2022/03/15 00:03:22;;;;;;;;;;;6.30;99.90;;;;;;6129138;23;19928;-90
2022/03/15 00:05:49;;;;;;;;;;;6.60;99.90;;;;;;6128112;23;20005;-89
2022/03/15 00:08:18;;;;;;;;;;;6.50;99.90;;;;;;6128954;23;20285;-90
2022/03/15 00:10:46;;;;;;;;;;;6.40;99.90;;;;;;6128174;23;20309;-89
2022/03/15 00:13:13;;;;;;;;;;;6.60;99.90;;;;;;6128613;23;19932;-88
2022/03/15 00:15:42;;;;;;;;;;;6.50;99.90;;;;;;6128470;23;19924;-88
2022/03/15 00:18:10;;;;;;;;;;;6.50;99.90;;;;;;6122213;23;20405;-90
2022/03/15 00:20:37;;;;;;;;;;;6.40;99.90;;;;;;6125507;23;19921;-89
2022/03/15 00:23:04;;;;;;;;;;;6.30;99.90;;;;;;6128148;23;19925;-89
2022/03/15 00:25:31;;;;;;;;;;;6.30;99.90;;;;;;6127929;23;20031;-89
2022/03/15 00:28:00;;;;;;;;;;;6.10;99.90;;;;;;6127862;23;20253;-90
2022/03/15 00:30:27;;;;;;;;;;;6.10;99.90;;;;;;6127932;23;20344;-90
2022/03/15 00:32:54;;;;;;;;;;;5.90;99.90;;;;;;6130701;23;19978;-89
2022/03/15 00:35:25;;;;;;;;;;;5.40;99.90;;;;;;6127709;23;19928;-89
2022/03/15 00:37:53;;;;;;;;;;;5.70;99.90;;;;;;6127814;23;19921;-90
2022/03/15 00:40:21;;;;;;;;;;;5.70;99.90;;;;;;6128175;23;19943;-90
2022/03/15 00:42:50;;;;;;;;;;;5.80;99.90;;;;;;6128278;23;19921;-90
2022/03/15 00:45:17;;;;;;;;;;;5.70;99.90;;;;;;6128074;23;19972;-89
2022/03/15 00:47:44;;;;;;;;;;;5.60;99.90;;;;;;6128095;23;19928;-90
2022/03/15 00:50:11;;;;;;;;;;;5.40;99.90;;;;;;6128010;23;19927;-89
2022/03/15 00:52:39;;;;;;;;;;;5.40;99.90;;;;;;6128159;23;20376;-89
2022/03/15 00:55:06;;;;;;;;;;;5.40;99.90;;;;;;6128246;23;19921;-89
2022/03/15 00:57:33;;;;;;;;;;;5.00;99.90;;;;;;6128402;23;19920;-89
2022/03/15 01:00:00;;;;;;;;;;;5.90;99.90;;;;;;6128226;23;19928;-90
2022/03/15 01:02:27;;;;;;;;;;;5.70;99.90;;;;;;6127953;23;19944;-89
2022/03/15 01:04:54;;;;;;;;;;;5.40;99.90;;;;;;6127732;23;19921;-90
2022/03/15 01:07:21;;;;;;;;;;;5.40;99.90;;;;;;6127451;23;19921;-89
2022/03/15 01:09:49;;;;;;;;;;;5.50;99.90;;;;;;6127201;23;19999;-88
2022/03/15 01:12:16;;;;;;;;;;;5.70;99.90;;;;;;6128200;23;19976;-90
2022/03/15 01:14:43;;;;;;;;;;;5.60;99.90;;;;;;6126866;23;20341;-89
2022/03/15 01:17:10;;;;;;;;;;;5.30;99.90;;;;;;6127978;23;19931;-89
2022/03/15 01:19:37;;;;;;;;;;;5.30;99.90;;;;;;6127798;23;20329;-89
2022/03/15 01:22:06;;;;;;;;;;;5.30;99.90;;;;;;6127799;23;19999;-90
2022/03/15 01:24:33;;;;;;;;;;;5.20;99.90;;;;;;6127666;23;19928;-90
2022/03/15 01:27:01;;;;;;;;;;;5.70;99.90;;;;;;6128441;23;19927;-89
2022/03/15 01:29:28;;;;;;;;;;;5.60;99.90;;;;;;6128183;23;19945;-90
2022/03/15 01:31:55;;;;;;;;;;;5.10;99.90;;;;;;6128073;23;19929;-90
2022/03/15 01:34:22;;;;;;;;;;;5.80;99.90;;;;;;6128044;23;19997;-90
2022/03/15 01:36:49;;;;;;;;;;;5.60;99.90;;;;;;6128098;23;19925;-89
2022/03/15 01:39:16;;;;;;;;;;;4.90;99.90;;;;;;6127904;23;19956;-90
2022/03/15 01:41:44;;;;;;;;;;;4.80;99.90;;;;;;6127854;23;20344;-91
2022/03/15 01:44:16;;;;;;;;;;;2.90;99.90;;;;;;6128473;23;19924;-89
2022/03/15 01:46:43;;;;;;;;;;;4.90;99.90;;;;;;6128269;23;19921;-90
2022/03/15 01:49:10;;;;;;;;;;;5.60;99.90;;;;;;6128315;23;19921;-89
2022/03/15 01:51:38;;;;;;;;;;;5.10;99.90;;;;;;6127727;23;20024;-89
2022/03/15 01:54:05;;;;;;;;;;;5.50;99.90;;;;;;6128210;23;19921;-89
2022/03/15 01:56:32;;;;;;;;;;;5.00;99.90;;;;;;6127726;23;19925;-89
2022/03/15 01:58:59;;;;;;;;;;;5.10;99.90;;;;;;6128417;23;19928;-90
2022/03/15 02:01:28;;;;;;;;;;;5.40;99.90;;;;;;6128579;23;19972;-90
2022/03/15 02:03:54;;;;;;;;;;;5.00;99.90;;;;;;6127676;23;19921;-91
2022/03/15 02:06:21;;;;;;;;;;;4.80;99.90;;;;;;6128196;23;19961;-90
2022/03/15 02:08:48;;;;;;;;;;;4.80;99.90;;;;;;6127861;23;20363;-89
2022/03/15 02:11:16;;;;;;;;;;;4.50;99.90;;;;;;6128481;23;19925;-90
2022/03/15 02:13:42;;;;;;;;;;;5.20;99.90;;;;;;6128346;23;19921;-90
2022/03/15 02:16:09;;;;;;;;;;;4.80;99.90;;;;;;6128651;23;19920;-90
2022/03/15 02:18:37;;;;;;;;;;;5.00;99.90;;;;;;6128579;23;19953;-89
2022/03/15 02:21:06;;;;;;;;;;;4.60;99.90;;;;;;6127529;23;19921;-90
2022/03/15 02:23:33;;;;;;;;;;;5.20;99.90;;;;;;6127709;23;19988;-89
2022/03/15 02:25:59;;;;;;;;;;;4.70;99.90;;;;;;6127892;23;20325;-90
2022/03/15 02:28:26;;;;;;;;;;;4.80;99.90;;;;;;6127935;23;19928;-90
2022/03/15 02:30:53;;;;;;;;;;;3.80;99.90;;;;;;6127433;23;20321;-89
2022/03/15 02:33:20;;;;;;;;;;;4.40;99.90;;;;;;6127801;23;19921;-90
2022/03/15 02:35:47;;;;;;;;;;;5.10;99.90;;;;;;6127239;23;20333;-90
2022/03/15 02:38:15;;;;;;;;;;;4.90;99.90;;;;;;6128030;23;20257;-90
2022/03/15 02:40:42;;;;;;;;;;;4.70;99.90;;;;;;6128048;23;19925;-90
2022/03/15 02:43:09;;;;;;;;;;;4.60;99.90;;;;;;6127691;23;20176;-89
2022/03/15 02:45:36;;;;;;;;;;;4.90;99.90;;;;;;6129198;23;19925;-89
2022/03/15 02:48:03;;;;;;;;;;;4.50;99.90;;;;;;6129401;23;19952;-88
2022/03/15 02:50:30;;;;;;;;;;;5.20;99.90;;;;;;6128633;23;19928;-90
2022/03/15 02:52:57;;;;;;;;;;;4.20;99.90;;;;;;6129349;23;20301;-90
2022/03/15 02:55:25;;;;;;;;;;;4.10;99.90;;;;;;6129626;23;19921;-89
2022/03/15 02:57:52;;;;;;;;;;;5.10;99.90;;;;;;6129732;23;19921;-89
2022/03/15 03:00:19;;;;;;;;;;;4.30;99.90;;;;;;6129806;23;20253;-90
2022/03/15 03:02:46;;;;;;;;;;;4.00;99.90;;;;;;6129769;23;19948;-89
2022/03/15 03:05:13;;;;;;;;;;;4.50;99.90;;;;;;6129105;23;20252;-89
2022/03/15 03:07:40;;;;;;;;;;;4.10;99.90;;;;;;6129576;23;20329;-89
2022/03/15 03:10:08;;;;;;;;;;;4.20;99.90;;;;;;6129353;23;19921;-90
2022/03/15 03:12:37;;;;;;;;;;;4.10;99.90;;;;;;6129243;23;19968;-89
2022/03/15 03:15:09;;;;;;;;;;;3.90;99.90;;;;;;6128934;23;19925;-89
2022/03/15 03:17:40;;;;;;;;;;;4.10;99.90;;;;;;6128784;23;19935;-89
2022/03/15 03:20:09;;;;;;;;;;;4.20;99.90;;;;;;6129605;23;19996;-89
2022/03/15 03:22:36;;;;;;;;;;;3.80;99.90;;;;;;6129129;23;19924;-88
2022/03/15 03:25:03;;;;;;;;;;;3.70;99.90;;;;;;6129013;23;19953;-89
2022/03/15 03:27:30;;;;;;;;;;;2.90;99.90;;;;;;6129448;23;19921;-89
2022/03/15 03:29:58;;;;;;;;;;;3.80;99.90;;;;;;6129302;23;19983;-88
2022/03/15 03:32:25;;;;;;;;;;;4.10;99.90;;;;;;6136283;23;19921;-87
2022/03/15 03:34:52;;;;;;;;;;;3.70;99.90;;;;;;6137393;23;19921;-86
2022/03/15 03:37:19;;;;;;;;;;;3.60;99.90;;;;;;6131174;23;19921;-88
2022/03/15 03:39:46;;;;;;;;;;;3.50;99.90;;;;;;6129629;23;19921;-88
2022/03/15 03:42:13;;;;;;;;;;;3.80;99.90;;;;;;6129775;23;19992;-88
2022/03/15 03:44:42;;;;;;;;;;;2.20;99.90;;;;;;6129219;23;20336;-89
2022/03/15 03:47:10;;;;;;;;;;;2.30;99.90;;;;;;6129544;23;19976;-88
2022/03/15 03:49:38;;;;;;;;;;;3.40;99.90;;;;;;6129311;23;19928;-89
2022/03/15 03:52:05;;;;;;;;;;;3.50;99.90;;;;;;6129445;23;19921;-88
2022/03/15 03:54:32;;;;;;;;;;;3.40;99.90;;;;;;6129076;23;19928;-89
2022/03/15 03:56:59;;;;;;;;;;;3.10;99.90;;;;;;6128754;23;19928;-87
2022/03/15 03:59:26;;;;;;;;;;;3.30;99.90;;;;;;6128976;23;20350;-87
2022/03/15 04:01:53;;;;;;;;;;;4.60;99.90;;;;;;6129460;23;19920;-89
2022/03/15 04:04:21;;;;;;;;;;;3.40;99.90;;;;;;6128672;23;20372;-89
2022/03/15 04:06:48;;;;;;;;;;;3.70;99.90;;;;;;6128857;23;20332;-89
2022/03/15 04:09:15;;;;;;;;;;;3.80;99.90;;;;;;6129305;23;20226;-89
2022/03/15 04:11:43;;;;;;;;;;;4.00;99.90;;;;;;6128712;23;19976;-89
2022/03/15 04:14:11;;;;;;;;;;;3.30;99.90;;;;;;6128573;23;19925;-88
2022/03/15 04:16:38;;;;;;;;;;;3.80;99.90;;;;;;6128391;23;19921;-89
2022/03/15 04:19:05;;;;;;;;;;;3.30;99.90;;;;;;6128512;23;19921;-89
2022/03/15 04:21:36;;;;;;;;;;;3.30;99.90;;;;;;6129124;23;19921;-89
2022/03/15 04:24:04;;;;;;;;;;;3.20;99.90;;;;;;6128582;23;19961;-88
2022/03/15 04:26:30;;;;;;;;;;;3.10;99.90;;;;;;6128819;23;20312;-89
2022/03/15 04:28:58;;;;;;;;;;;4.60;99.90;;;;;;6128250;23;19925;-89
2022/03/15 04:31:24;;;;;;;;;;;1.70;99.90;;;;;;6128815;23;19920;-88
2022/03/15 04:33:52;;;;;;;;;;;3.60;99.90;;;;;;6129054;23;19921;-90
2022/03/15 04:36:18;;;;;;;;;;;3.10;99.90;;;;;;6128823;23;20241;-90
2022/03/15 04:38:47;;;;;;;;;;;3.10;99.90;;;;;;6127730;23;19928;-91
2022/03/15 04:41:14;;;;;;;;;;;3.10;99.90;;;;;;6128971;23;20000;-90
2022/03/15 04:43:40;;;;;;;;;;;3.10;99.90;;;;;;6128697;23;19955;-89
2022/03/15 04:46:08;;;;;;;;;;;3.40;99.90;;;;;;6128262;23;19929;-89
2022/03/15 04:48:35;;;;;;;;;;;3.10;99.90;;;;;;6129007;23;20253;-90
2022/03/15 04:51:02;;;;;;;;;;;3.10;99.90;;;;;;6128830;23;20073;-90
2022/03/15 04:53:29;;;;;;;;;;;4.20;99.90;;;;;;6128014;23;19921;-90
2022/03/15 04:55:57;;;;;;;;;;;1.30;99.90;;;;;;6128859;23;19928;-88
2022/03/15 04:58:24;;;;;;;;;;;3.10;99.90;;;;;;6128797;23;19987;-89
2022/03/15 05:00:51;;;;;;;;;;;3.20;99.90;;;;;;6129017;23;19921;-89
2022/03/15 05:03:17;;;;;;;;;;;4.00;99.90;;;;;;6128229;23;19925;-88
2022/03/15 05:05:45;;;;;;;;;;;3.20;99.90;;;;;;6127987;23;19925;-89
2022/03/15 05:08:11;;;;;;;;;;;3.70;99.90;;;;;;6128459;23;19984;-88
2022/03/15 05:13:25;;;;;;;;;;;3.10;99.90;;;;;;6128326;23;19976;-88
2022/03/15 05:15:52;;;;;;;;;;;3.90;99.90;;;;;;6128060;23;19920;-90
2022/03/15 05:18:19;;;;;;;;;;;3.50;99.90;;;;;;6128340;23;19920;-89
2022/03/15 05:20:46;;;;;;;;;;;3.40;99.90;;;;;;6128743;23;19925;-87
2022/03/15 05:23:13;;;;;;;;;;;1.10;99.90;;;;;;6127869;23;19928;-89
2022/03/15 05:25:40;;;;;;;;;;;3.60;99.90;;;;;;6128245;23;19927;-89
2022/03/15 05:28:08;;;;;;;;;;;3.60;99.90;;;;;;6128569;23;19924;-89
2022/03/15 05:30:36;;;;;;;;;;;3.00;99.90;;;;;;6127954;23;20396;-90
2022/03/15 05:33:03;;;;;;;;;;;3.60;99.90;;;;;;6129158;23;19963;-87
2022/03/15 05:35:30;;;;;;;;;;;3.90;99.90;;;;;;6128077;23;19921;-89
2022/03/15 05:37:57;;;;;;;;;;;3.00;99.90;;;;;;6128311;23;19925;-88
2022/03/15 05:40:26;;;;;;;;;;;3.10;99.90;;;;;;6127644;23;20578;-89
2022/03/15 05:42:53;;;;;;;;;;;3.30;99.90;;;;;;6128141;23;20333;-89
2022/03/15 05:45:20;;;;;;;;;;;3.30;99.90;;;;;;6128234;23;19968;-89
2022/03/15 05:47:48;;;;;;;;;;;3.50;99.90;;;;;;6128085;23;19920;-88
2022/03/15 05:50:15;;;;;;;;;;;4.60;99.90;;;;;;6128360;23;19921;-90
2022/03/15 05:52:42;;;;;;;;;;;3.30;99.90;;;;;;6128261;23;19925;-90
2022/03/15 05:55:10;;;;;;;;;;;3.00;99.90;;;;;;6128738;23;19925;-90
2022/03/15 05:57:37;;;;;;;;;;;4.20;99.90;;;;;;6127909;23;20320;-89
2022/03/15 06:00:04;;;;;;;;;;;2.40;99.90;;;;;;6128823;23;19928;-90
2022/03/15 06:02:31;;;;;;;;;;;3.40;99.90;;;;;;6128772;23;19936;-90
2022/03/15 06:04:59;;;;;;;;;;;4.50;99.90;;;;;;6128616;23;19925;-90
2022/03/15 06:07:26;;;;;;;;;;;4.00;99.90;;;;;;6128083;23;19929;-90
2022/03/15 06:09:53;;;;;;;;;;;3.00;99.90;;;;;;6128823;23;19921;-90
2022/03/15 06:12:20;;;;;;;;;;;3.60;99.90;;;;;;6127236;23;19925;-88
2022/03/15 06:14:47;;;;;;;;;;;3.10;99.90;;;;;;6127294;23;19940;-87
2022/03/15 06:17:14;;;;;;;;;;;3.20;99.90;;;;;;6127431;23;19940;-88
2022/03/15 06:19:41;;;;;;;;;;;2.70;99.90;;;;;;6129042;23;19924;-88
2022/03/15 06:22:09;;;;;;;;;;;2.70;99.90;;;;;;6129063;23;19921;-88
2022/03/15 06:24:36;;;;;;;;;;;2.80;99.90;;;;;;6128500;23;19921;-87
2022/03/15 06:27:04;;;;;;;;;;;2.80;99.90;;;;;;6128555;23;19920;-87
2022/03/15 06:29:30;;;;;;;;;;;2.80;99.90;;;;;;6128586;23;19921;-87
2022/03/15 06:31:57;;;;;;;;;;;3.00;99.90;;;;;;6128619;23;19924;-86
2022/03/15 06:34:24;;;;;;;;;;;4.00;99.90;;;;;;6128985;23;19921;-87
2022/03/15 06:36:51;;;;;;;;;;;3.00;99.90;;;;;;6128699;23;19932;-87
2022/03/15 06:39:19;;;;;;;;;;;3.10;99.90;;;;;;6130236;23;20256;-87
2022/03/15 06:41:46;;;;;;;;;;;2.10;99.90;;;;;;6131461;23;19921;-88
2022/03/15 06:44:15;;;;;;;;;;;3.10;99.90;;;;;;6133386;23;20253;-87
2022/03/15 06:46:42;;;;;;;;;;;3.90;99.90;;;;;;6130957;23;19921;-88
2022/03/15 06:49:09;;;;;;;;;;;4.00;99.90;;;;;;6130356;23;19935;-89
2022/03/15 06:51:36;;;;;;;;;;;3.20;99.90;;;;;;6130429;23;19921;-88
2022/03/15 06:54:03;;;;;;;;;;;3.80;99.90;;;;;;6130532;23;19968;-89
2022/03/15 06:56:34;;;;;;;;;;;3.70;99.90;;;;;;6130502;23;19925;-89
2022/03/15 06:59:01;;;;;;;;;;;4.40;99.90;;;;;;6130135;23;19925;-88
2022/03/15 07:01:28;;;;;;;;;;;3.50;99.90;;;;;;6129856;23;19921;-89
2022/03/15 07:03:57;;;;;;;;;;;4.00;99.90;;;;;;6132042;23;19968;-85
2022/03/15 07:06:23;;;;;;;;;;;4.00;99.90;;;;;;6139632;23;19921;-86
2022/03/15 07:08:50;;;;;;;;;;;3.40;99.90;;;;;;6139520;23;19944;-88
2022/03/15 07:11:17;;;;;;;;;;;3.80;99.90;;;;;;6131127;23;19925;-86
2022/03/15 07:13:45;;;;;;;;;;;4.10;99.90;;;;;;6131186;23;19928;-88
2022/03/15 07:16:12;;;;;;;;;;;3.70;99.90;;;;;;6131306;23;20265;-90
2022/03/15 07:18:39;;;;;;;;;;;4.40;99.90;;;;;;6130401;23;20345;-89
2022/03/15 07:21:06;;;;;;;;;;;3.90;99.90;;;;;;6129782;23;20329;-87
2022/03/15 07:23:33;;;;;;;;;;;4.10;99.90;;;;;;6129470;23;19925;-89
2022/03/15 07:26:01;;;;;;;;;;;4.20;99.90;;;;;;6130074;23;19931;-86
2022/03/15 07:28:28;;;;;;;;;;;3.70;99.90;;;;;;6130465;23;20333;-88
2022/03/15 07:30:56;;;;;;;;;;;4.20;99.90;;;;;;6130897;23;19976;-88
2022/03/15 07:33:23;;;;;;;;;;;4.60;99.90;;;;;;6132104;23;19928;-88
2022/03/15 07:35:50;;;;;;;;;;;4.80;99.90;;;;;;6131150;23;19948;-90
2022/03/15 07:38:18;;;;;;;;;;;4.40;99.90;;;;;;6132515;23;19964;-88
2022/03/15 07:40:45;;;;;;;;;;;4.70;99.90;;;;;;6130956;23;19937;-88
2022/03/15 07:43:12;;;;;;;;;;;5.00;99.90;;;;;;6131694;23;20230;-89
2022/03/15 07:45:39;;;;;;;;;;;4.70;99.90;;;;;;6133928;23;19965;-88
2022/03/15 07:48:08;;;;;;;;;;;5.10;99.90;;;;;;6132258;23;19928;-86
2022/03/15 07:50:35;;;;;;;;;;;5.20;99.90;;;;;;6133216;23;19995;-88
2022/03/15 07:53:02;;;;;;;;;;;5.10;99.90;;;;;;6131784;23;19953;-89
2022/03/15 07:55:29;;;;;;;;;;;5.60;99.90;;;;;;6131265;23;20328;-89
2022/03/15 07:57:55;;;;;;;;;;;5.50;99.90;;;;;;6130889;23;20308;-88
2022/03/15 08:00:22;;;;;;;;;;;5.60;99.90;;;;;;6131811;23;19968;-88
2022/03/15 08:02:51;;;;;;;;;;;5.60;99.90;;;;;;6131546;23;19921;-88
2022/03/15 08:05:24;;;;;;;;;;;5.60;99.90;;;;;;6130245;23;19941;-90
2022/03/15 08:07:51;;;;;;;;;;;5.70;99.90;;;;;;6134644;23;20345;-88
2022/03/15 08:10:17;;;;;;;;;;;5.80;99.90;;;;;;6131134;23;19925;-87
2022/03/15 08:12:44;;;;;;;;;;;5.80;99.90;;;;;;6134350;23;19973;-88
2022/03/15 08:15:14;;;;;;;;;;;5.00;99.90;;;;;;6134367;23;19925;-89
2022/03/15 08:17:41;;;;;;;;;;;5.80;99.90;;;;;;6133509;23;19925;-90
2022/03/15 08:20:12;;;;;;;;;;;5.90;99.90;;;;;;6131729;23;19921;-90
2022/03/15 08:22:42;;;;;;;;;;;6.10;99.90;;;;;;6131498;23;19925;-89
2022/03/15 08:25:25;;;;;;;;;;;6.10;99.90;;;;;;6132392;23;19940;-90
2022/03/15 08:27:55;;;;;;;;;;;6.70;99.90;;;;;;6132190;23;19921;-89
2022/03/15 08:30:22;;;;;;;;;;;6.60;99.90;;;;;;6130659;23;19920;-89
2022/03/15 08:32:49;;;;;;;;;;;6.60;99.90;;;;;;6134282;23;20062;-89
2022/03/15 08:35:18;;;;;;;;;;;6.90;99.90;;;;;;6136136;23;19992;-89
2022/03/15 08:37:50;;;;;;;;;;;7.00;99.90;;;;;;6135423;23;19921;-90
2022/03/15 08:40:20;;;;;;;;;;;6.80;99.90;;;;;;6134687;23;19920;-89
2022/03/15 08:42:49;;;;;;;;;;;7.00;99.90;;;;;;6133086;23;19928;-85
2022/03/15 08:45:18;;;;;;;;;;;7.10;99.90;;;;;;6135299;23;19921;-88
2022/03/15 08:47:49;;;;;;;;;;;7.00;99.90;;;;;;6131798;23;19932;-89
2022/03/15 08:50:22;;;;;;;;;;;7.00;99.90;;;;;;6135338;23;19921;-88
2022/03/15 08:52:55;;;;;;;;;;;7.00;99.90;;;;;;6129877;23;19921;-87
2022/03/15 08:55:22;;;;;;;;;;;7.70;99.90;;;;;;6129625;23;20304;-87
2022/03/15 08:57:50;;;;;;;;;;;7.50;99.90;;;;;;6133477;23;19925;-88
2022/03/15 09:00:21;;;;;;;;;;;7.60;99.90;;;;;;6130166;23;19921;-88
2022/03/15 09:02:56;;;;;;;;;;;7.70;99.90;;;;;;6128838;23;19921;-87
2022/03/15 09:05:26;;;;;;;;;;;8.50;99.90;;;;;;6129169;23;19943;-90
2022/03/15 09:07:55;;;;;;;;;;;7.60;99.90;;;;;;6132646;23;20340;-89
2022/03/15 09:10:22;;;;;;;;;;;7.00;99.90;;;;;;6130244;23;19925;-88
2022/03/15 09:12:50;;;;;;;;;;;8.40;99.90;;;;;;6127995;23;19921;-87
2022/03/15 09:15:17;;;;;;;;;;;8.70;99.90;;;;;;6128065;23;19970;-87
2022/03/15 09:17:44;;;;;;;;;;;8.50;99.90;;;;;;6127831;23;19921;-87
2022/03/15 09:20:12;;;;;;;;;;;9.00;99.90;;;;;;6127819;23;20364;-87
2022/03/15 09:22:42;;;;;;;;;;;9.20;99.90;;;;;;6126763;23;19931;-88
2022/03/15 09:25:10;;;;;;;;;;;8.40;99.90;;;;;;6126612;23;19995;-88
2022/03/15 09:27:37;;;;;;;;;;;9.50;99.90;;;;;;6127017;23;20341;-89
2022/03/15 09:30:04;;;;;;;;;;;9.90;99.90;;;;;;6127628;23;19928;-87
2022/03/15 09:32:31;;;;;;;;;;;9.30;99.90;;;;;;6127961;23;20225;-88
2022/03/15 09:34:58;;;;;;;;;;;10.00;99.90;;;;;;6128050;23;19925;-87
2022/03/15 09:37:25;;;;;;;;;;;9.60;99.90;;;;;;6126998;23;19924;-88
2022/03/15 09:39:52;;;;;;;;;;;7.90;99.90;;;;;;6126876;23;19925;-87
2022/03/15 09:42:25;;;;;;;;;;;9.90;99.90;;;;;;6126460;23;19941;-86
2022/03/15 09:44:52;;;;;;;;;;;9.80;99.90;;;;;;6127124;23;20019;-88
2022/03/15 09:47:24;;;;;;;;;;;10.10;99.90;;;;;;6126119;23;19921;-87
2022/03/15 09:49:53;;;;;;;;;;;10.10;99.90;;;;;;6126274;23;20001;-87
2022/03/15 09:52:23;;;;;;;;;;;10.10;99.90;;;;;;6126493;23;19921;-88
2022/03/15 09:54:50;;;;;;;;;;;10.20;99.90;;;;;;6127522;23;19921;-87
2022/03/15 09:57:17;;;;;;;;;;;10.40;99.90;;;;;;6127627;23;20256;-89
2022/03/15 09:59:45;;;;;;;;;;;10.50;99.90;;;;;;6128432;23;20341;-88
2022/03/15 10:02:13;;;;;;;;;;;10.30;99.90;;;;;;6126871;23;19932;-88
2022/03/15 10:04:41;;;;;;;;;;;10.70;99.90;;;;;;6126527;23;20251;-88
2022/03/15 10:07:10;;;;;;;;;;;10.80;99.90;;;;;;6126262;23;19925;-88
2022/03/15 10:09:38;;;;;;;;;;;10.90;99.90;;;;;;6126628;23;19921;-88
2022/03/15 10:12:08;;;;;;;;;;;13.60;99.90;;;;;;6126357;23;20337;-88
2022/03/15 10:14:42;;;;;;;;;;;11.00;99.90;;;;;;6125708;23;19921;-88
2022/03/15 10:17:12;;;;;;;;;;;10.40;99.90;;;;;;6126700;23;19922;-88
2022/03/15 10:19:39;;;;;;;;;;;11.10;99.90;;;;;;6128355;23;19972;-90
2022/03/15 10:22:09;;;;;;;;;;;11.40;99.90;;;;;;6126524;23;19921;-89
2022/03/15 10:24:38;;;;;;;;;;;11.30;99.90;;;;;;6125732;23;20354;-88
2022/03/15 10:27:06;;;;;;;;;;;11.20;99.90;;;;;;6126022;23;19928;-88
2022/03/15 10:29:34;;;;;;;;;;;11.00;99.90;;;;;;6126623;23;19921;-88
2022/03/15 10:32:02;;;;;;;;;;;11.30;99.90;;;;;;6127074;23;19940;-88
2022/03/15 10:34:30;;;;;;;;;;;11.30;99.90;;;;;;6128289;23;19921;-88
2022/03/15 10:36:57;;;;;;;;;;;11.60;99.90;;;;;;6127205;23;19921;-88
2022/03/15 10:39:25;;;;;;;;;;;11.10;99.90;;;;;;6132014;23;19975;-87
2022/03/15 10:41:54;;;;;;;;;;;11.50;99.90;;;;;;6131198;23;19921;-87
2022/03/15 10:44:24;;;;;;;;;;;11.30;99.90;;;;;;6128225;23;19921;-89
2022/03/15 10:47:02;;;;;;;;;;;9.40;99.90;;;;;;6129671;23;19999;-89
2022/03/15 10:49:32;;;;;;;;;;;11.50;99.90;;;;;;6127564;23;19920;-89
2022/03/15 10:51:59;;;;;;;;;;;11.50;99.90;;;;;;6126946;23;19925;-88
2022/03/15 10:54:28;;;;;;;;;;;12.20;99.90;;;;;;6126469;23;19924;-89
2022/03/15 10:56:55;;;;;;;;;;;13.70;99.90;;;;;;6126541;23;19921;-89
2022/03/15 10:59:28;;;;;;;;;;;11.90;99.90;;;;;;6127931;23;20247;-89
2022/03/15 11:01:55;;;;;;;;;;;12.00;99.90;;;;;;6126339;23;19944;-89
2022/03/15 11:04:23;;;;;;;;;;;11.60;99.90;;;;;;6128311;23;19928;-89
2022/03/15 11:06:52;;;;;;;;;;;12.30;99.90;;;;;;6127643;23;20284;-87
2022/03/15 11:09:20;;;;;;;;;;;12.40;99.90;;;;;;6128823;23;19983;-88
2022/03/15 11:11:47;;;;;;;;;;;12.40;99.90;;;;;;6128404;23;19971;-90
2022/03/15 11:14:14;;;;;;;;;;;12.60;99.90;;;;;;6128429;23;19921;-89
2022/03/15 11:16:45;;;;;;;;;;;12.50;99.90;;;;;;6128734;23;19951;-89
2022/03/15 11:19:16;;;;;;;;;;;12.50;99.90;;;;;;6129214;23;19920;-88
2022/03/15 11:21:44;;;;;;;;;;;13.00;99.90;;;;;;6128378;23;19921;-89
2022/03/15 11:24:18;;;;;;;;;;;12.80;99.90;;;;;;6128370;23;19924;-89
2022/03/15 11:26:45;;;;;;;;;;;12.80;99.90;;;;;;6128567;23;19927;-90
2022/03/15 11:29:13;;;;;;;;;;;12.90;99.90;;;;;;6128492;23;19921;-88
2022/03/15 11:31:41;;;;;;;;;;;13.80;99.90;;;;;;6129881;23;19925;-89
2022/03/15 11:34:08;;;;;;;;;;;12.80;99.90;;;;;;6128157;23;20099;-89
2022/03/15 11:36:35;;;;;;;;;;;13.10;99.90;;;;;;6127470;23;19928;-88
2022/03/15 11:39:03;;;;;;;;;;;13.10;99.90;;;;;;6127659;23;19921;-90
2022/03/15 11:41:33;;;;;;;;;;;13.00;99.90;;;;;;6129866;23;20249;-88
2022/03/15 11:44:06;;;;;;;;;;;13.40;99.90;;;;;;6129670;23;19991;-88
2022/03/15 11:46:34;;;;;;;;;;;13.60;99.90;;;;;;6126905;23;20253;-89
2022/03/15 11:49:12;;;;;;;;;;;13.20;99.90;;;;;;6128587;23;20245;-88
2022/03/15 11:51:45;;;;;;;;;;;13.40;99.90;;;;;;6127118;23;19921;-88
2022/03/15 11:54:17;;;;;;;;;;;13.10;99.90;;;;;;6127661;23;19921;-88
2022/03/15 11:56:48;;;;;;;;;;;12.90;99.90;;;;;;6127958;23;20017;-89
2022/03/15 11:59:15;;;;;;;;;;;12.90;99.90;;;;;;6127725;23;19951;-87
2022/03/15 12:01:43;;;;;;;;;;;13.40;99.90;;;;;;6129057;23;19955;-88
2022/03/15 12:04:13;;;;;;;;;;;13.90;99.90;;;;;;6127789;23;19926;-91
2022/03/15 12:06:48;;;;;;;;;;;13.40;99.90;;;;;;6127017;23;19932;-87
2022/03/15 12:09:26;;;;;;;;;;;13.20;99.90;;;;;;6127537;23;19928;-89
2022/03/15 12:12:06;;;;;;;;;;;14.40;99.90;;;;;;6127333;23;19925;-89
2022/03/15 12:14:38;;;;;;;;;;;13.00;99.90;;;;;;6127183;23;19921;-88
2022/03/15 12:17:07;;;;;;;;;;;13.40;99.90;;;;;;6127983;23;19924;-88
2022/03/15 12:19:43;;;;;;;;;;;12.80;99.90;;;;;;6128377;23;19925;-89
2022/03/15 12:22:21;;;;;;;;;;;13.00;99.90;;;;;;6126885;23;20387;-88
2022/03/15 12:24:50;;;;;;;;;;;13.00;99.90;;;;;;6127193;23;19944;-88
2022/03/15 12:27:29;;;;;;;;;;;13.20;99.90;;;;;;6127006;23;19925;-90
2022/03/15 12:29:57;;;;;;;;;;;13.30;99.90;;;;;;6128163;23;19944;-89
2022/03/15 12:32:25;;;;;;;;;;;13.20;99.90;;;;;;6128845;23;19979;-88
2022/03/15 12:34:55;;;;;;;;;;;13.20;99.90;;;;;;6127933;23;19921;-88
2022/03/15 12:37:30;;;;;;;;;;;13.20;99.90;;;;;;6127379;23;19995;-89
2022/03/15 12:40:00;;;;;;;;;;;13.50;99.90;;;;;;6126697;23;19927;-87
2022/03/15 12:42:31;;;;;;;;;;;13.20;99.90;;;;;;6130415;23;19925;-89
2022/03/15 12:45:02;;;;;;;;;;;13.40;99.90;;;;;;6128494;23;19932;-89
2022/03/15 12:47:32;;;;;;;;;;;13.30;99.90;;;;;;6124644;23;19968;-88
2022/03/15 12:50:08;;;;;;;;;;;13.60;99.90;;;;;;6121220;23;19928;-88
2022/03/15 12:52:39;;;;;;;;;;;14.60;99.90;;;;;;6127899;23;19921;-89
2022/03/15 12:55:06;;;;;;;;;;;13.90;99.90;;;;;;6098207;23;20356;-89
2022/03/15 12:57:34;;;;;;;;;;;13.90;99.90;;;;;;6127144;23;19921;-89
2022/03/15 13:00:02;;;;;;;;;;;13.90;99.90;;;;;;6125107;23;19922;-88
2022/03/15 13:02:30;;;;;;;;;;;12.80;99.90;;;;;;6126557;23;19924;-89
2022/03/15 13:05:01;;;;;;;;;;;13.90;99.90;;;;;;6130524;23;19999;-87
2022/03/15 13:07:29;;;;;;;;;;;14.30;99.90;;;;;;6127271;23;19927;-88
2022/03/15 13:09:58;;;;;;;;;;;14.40;99.90;;;;;;6130863;23;19921;-89
2022/03/15 13:12:30;;;;;;;;;;;14.20;99.90;;;;;;6131105;23;19921;-89
2022/03/15 13:15:00;;;;;;;;;;;14.40;99.90;;;;;;6127629;23;19920;-88
2022/03/15 13:17:30;;;;;;;;;;;14.30;99.90;;;;;;6128445;23;19935;-89
2022/03/15 13:19:59;;;;;;;;;;;14.00;99.90;;;;;;6128958;23;19920;-90
2022/03/15 13:22:28;;;;;;;;;;;14.30;99.90;;;;;;6128541;23;19921;-88
2022/03/15 13:25:01;;;;;;;;;;;14.10;99.90;;;;;;6137241;23;20391;-89
2022/03/15 13:27:37;;;;;;;;;;;14.40;99.90;;;;;;6128865;23;19925;-88
2022/03/15 13:30:10;;;;;;;;;;;13.80;99.90;;;;;;6131351;23;19931;-86
2022/03/15 13:32:37;;;;;;;;;;;14.20;99.90;;;;;;6128648;23;19925;-88
2022/03/15 13:35:04;;;;;;;;;;;14.20;99.90;;;;;;6128522;23;19932;-89
2022/03/15 13:37:32;;;;;;;;;;;14.20;99.90;;;;;;6128545;23;19921;-89
2022/03/15 13:39:59;;;;;;;;;;;14.40;99.90;;;;;;6131238;23;19941;-88
2022/03/15 13:42:26;;;;;;;;;;;14.30;99.90;;;;;;6131390;23;19925;-88
2022/03/15 13:44:54;;;;;;;;;;;14.40;99.90;;;;;;6133193;23;19921;-89
2022/03/15 13:47:25;;;;;;;;;;;14.50;99.90;;;;;;6132983;23;19952;-89
2022/03/15 13:49:57;;;;;;;;;;;14.60;99.90;;;;;;6127773;23;19969;-89
2022/03/15 13:52:24;;;;;;;;;;;13.60;99.90;;;;;;6126815;23;19924;-89
2022/03/15 13:55:00;;;;;;;;;;;14.40;99.90;;;;;;6127539;23;19920;-89
2022/03/15 13:57:30;;;;;;;;;;;14.60;99.90;;;;;;6127586;23;19929;-90
2022/03/15 13:59:58;;;;;;;;;;;14.70;99.90;;;;;;6128458;23;19921;-89
2022/03/15 14:02:32;;;;;;;;;;;14.80;99.90;;;;;;6128216;23;19955;-89
2022/03/15 14:05:01;;;;;;;;;;;15.00;99.90;;;;;;6127964;23;19992;-87
2022/03/15 14:07:28;;;;;;;;;;;14.50;99.90;;;;;;6128139;23;20311;-90
2022/03/15 14:10:01;;;;;;;;;;;14.50;99.90;;;;;;6127684;23;19924;-90
2022/03/15 14:12:34;;;;;;;;;;;14.40;99.90;;;;;;6130103;23;19992;-89
2022/03/15 14:15:11;;;;;;;;;;;15.80;99.90;;;;;;6129943;23;19952;-90
2022/03/15 14:17:49;;;;;;;;;;;14.60;99.90;;;;;;6128486;23;20305;-89
2022/03/15 14:20:19;;;;;;;;;;;14.50;99.90;;;;;;6130787;23;20363;-88
2022/03/15 14:22:48;;;;;;;;;;;15.00;99.90;;;;;;6134180;23;19992;-89
2022/03/15 14:25:21;;;;;;;;;;;14.90;99.90;;;;;;6131182;23;19971;-88
2022/03/15 14:27:49;;;;;;;;;;;14.80;99.90;;;;;;6129725;23;19925;-87
2022/03/15 14:30:19;;;;;;;;;;;14.60;99.90;;;;;;6128582;23;19941;-87
2022/03/15 14:32:53;;;;;;;;;;;15.10;99.90;;;;;;6126785;23;19921;-89
2022/03/15 14:35:26;;;;;;;;;;;14.90;99.70;;;;;;6128057;23;19925;-88